createdAt,value
2023-05-20T00:00:40.580Z,13.80
2023-05-20T00:03:07.613Z,13.80
2023-05-20T00:05:34.923Z,13.80
2023-05-20T00:08:04.738Z,13.80
2023-05-20T00:10:31.701Z,13.80
2023-05-20T00:12:58.803Z,13.80
2023-05-20T00:15:25.712Z,13.80
2023-05-20T00:17:53.089Z,13.80
2023-05-20T00:20:20.317Z,13.80
2023-05-20T00:22:47.199Z,13.80
2023-05-20T00:25:14.918Z,13.80
2023-05-20T00:27:42.465Z,13.90
2023-05-20T00:30:09.979Z,13.90
2023-05-20T00:32:36.948Z,13.90
2023-05-20T00:35:04.649Z,13.80
2023-05-20T00:37:31.624Z,13.90
2023-05-20T00:39:58.701Z,13.90
2023-05-20T00:42:27.971Z,13.90
2023-05-20T00:44:55.999Z,13.90
2023-05-20T00:47:28.463Z,13.90
2023-05-20T00:49:56.472Z,13.90
2023-05-20T00:52:24.119Z,13.90
2023-05-20T00:54:52.161Z,13.90
2023-05-20T00:57:20.207Z,13.80
2023-05-20T00:59:47.542Z,13.80
2023-05-20T01:02:14.746Z,13.80
2023-05-20T01:04:46.725Z,13.80
2023-05-20T01:07:17.907Z,13.80
2023-05-20T01:09:45.610Z,13.80
2023-05-20T01:12:17.741Z,13.80
2023-05-20T01:14:50.116Z,13.80
2023-05-20T01:17:21.173Z,13.80
2023-05-20T01:19:49.162Z,13.70
2023-05-20T01:22:16.331Z,13.80
2023-05-20T01:24:44.699Z,13.80
2023-05-20T01:27:13.641Z,13.80
2023-05-20T01:29:42.179Z,13.80
2023-05-20T01:32:19.231Z,13.80
2023-05-20T01:34:52.178Z,13.70
2023-05-20T01:37:20.104Z,13.70
2023-05-20T01:39:48.549Z,13.70
2023-05-20T01:42:16.168Z,13.70
2023-05-20T01:44:43.725Z,13.80
2023-05-20T01:47:10.798Z,13.70
2023-05-20T01:49:37.898Z,13.70
2023-05-20T01:52:05.577Z,13.70
2023-05-20T01:54:32.785Z,13.70
2023-05-20T01:56:59.906Z,13.70
2023-05-20T01:59:27.026Z,13.70
2023-05-20T02:01:54.376Z,13.70
2023-05-20T02:04:22.725Z,13.70
2023-05-20T02:06:49.864Z,13.70
2023-05-20T02:09:18.800Z,13.70
2023-05-20T02:11:45.894Z,13.70
2023-05-20T02:14:13.935Z,13.70
2023-05-20T02:16:41.338Z,13.70
2023-05-20T02:19:13.187Z,13.70
2023-05-20T02:21:41.886Z,13.70
2023-05-20T02:24:08.928Z,13.60
2023-05-20T02:26:36.354Z,13.70
2023-05-20T02:29:03.801Z,13.70
2023-05-20T02:31:31.043Z,13.70
2023-05-20T02:33:58.221Z,13.70
2023-05-20T02:36:25.856Z,13.70
2023-05-20T02:38:54.759Z,13.70
2023-05-20T02:41:21.775Z,13.60
2023-05-20T02:43:48.882Z,13.70
2023-05-20T02:46:18.659Z,13.60
2023-05-20T02:48:45.931Z,13.60
2023-05-20T02:51:12.770Z,13.60
2023-05-20T02:53:39.692Z,13.60
2023-05-20T02:56:08.722Z,13.60
2023-05-20T02:58:35.900Z,13.60
2023-05-20T03:01:03.576Z,13.60
2023-05-20T03:03:30.947Z,13.70
2023-05-20T03:05:57.882Z,13.60
2023-05-20T03:08:25.296Z,13.60
2023-05-20T03:10:52.463Z,13.60
2023-05-20T03:13:19.588Z,13.60
2023-05-20T03:15:46.579Z,13.60
2023-05-20T03:18:16.519Z,13.60
2023-05-20T03:20:43.721Z,13.60
2023-05-20T03:23:11.234Z,13.60
2023-05-20T03:25:39.391Z,13.70
2023-05-20T03:28:06.979Z,13.70
2023-05-20T03:30:34.024Z,13.70
2023-05-20T03:35:30.090Z,13.70
2023-05-20T03:37:56.936Z,13.70
2023-05-20T03:40:25.088Z,13.70
2023-05-20T03:42:53.095Z,13.70
2023-05-20T03:45:21.037Z,13.70
2023-05-20T03:47:49.035Z,13.70
2023-05-20T03:50:16.268Z,13.70
2023-05-20T03:52:43.237Z,13.70
2023-05-20T03:55:10.556Z,13.80
2023-05-20T03:57:38.503Z,13.80
2023-05-20T04:00:11.363Z,13.80
2023-05-20T04:02:38.771Z,13.90
2023-05-20T04:05:08.777Z,13.90
2023-05-20T04:07:36.378Z,13.90
2023-05-20T04:10:04.443Z,13.90
2023-05-20T04:12:32.530Z,13.90
2023-05-20T04:15:02.954Z,13.90
2023-05-20T04:17:30.915Z,14.00
2023-05-20T04:20:00.141Z,14.10
2023-05-20T04:22:27.556Z,14.10
2023-05-20T04:24:54.775Z,14.20
2023-05-20T04:27:21.785Z,14.20
2023-05-20T04:29:48.942Z,14.20
2023-05-20T04:32:19.160Z,14.20
2023-05-20T04:34:49.229Z,14.20
2023-05-20T04:37:16.613Z,14.20
2023-05-20T04:39:44.172Z,14.20
2023-05-20T04:42:11.076Z,14.20
2023-05-20T04:44:38.094Z,14.20
2023-05-20T04:47:07.969Z,14.20
2023-05-20T04:49:35.500Z,14.30
2023-05-20T04:52:02.762Z,14.30
2023-05-20T04:54:30.033Z,14.40
2023-05-20T04:56:57.126Z,14.50
2023-05-20T04:59:24.580Z,14.60
2023-05-20T05:01:51.749Z,14.60
2023-05-20T05:04:18.793Z,14.70
2023-05-20T05:06:48.746Z,14.70
2023-05-20T05:09:15.899Z,14.80
2023-05-20T05:11:43.050Z,14.70
2023-05-20T05:14:10.144Z,14.80
2023-05-20T05:16:37.008Z,14.80
2023-05-20T05:19:03.990Z,14.80
2023-05-20T05:21:31.589Z,14.90
2023-05-20T05:23:58.720Z,15.00
2023-05-20T05:26:26.700Z,15.10
2023-05-20T05:28:55.745Z,15.20
2023-05-20T05:31:23.741Z,15.30
2023-05-20T05:33:50.642Z,15.40
2023-05-20T05:36:17.531Z,15.50
2023-05-20T05:38:44.713Z,15.60
2023-05-20T05:41:11.666Z,15.60
2023-05-20T05:43:38.576Z,15.70
2023-05-20T05:46:06.058Z,15.80
2023-05-20T05:48:33.405Z,15.90
2023-05-20T05:51:00.305Z,16.00
2023-05-20T05:53:27.567Z,16.10
2023-05-20T05:55:54.706Z,16.20
2023-05-20T05:58:21.749Z,16.30
2023-05-20T06:00:52.917Z,16.30
2023-05-20T06:03:20.225Z,16.30
2023-05-20T06:05:50.206Z,16.40
2023-05-20T06:08:17.088Z,16.40
2023-05-20T06:10:51.018Z,16.50
2023-05-20T06:13:18.311Z,16.50
2023-05-20T06:15:46.304Z,16.70
2023-05-20T06:18:13.421Z,16.70
2023-05-20T06:20:40.323Z,16.80
2023-05-20T06:23:07.226Z,16.90
2023-05-20T06:25:34.538Z,17.00
2023-05-20T06:28:01.581Z,17.10
2023-05-20T06:30:28.517Z,17.10
2023-05-20T06:32:55.466Z,17.10
2023-05-20T06:35:22.531Z,17.20
2023-05-20T06:37:49.753Z,17.20
2023-05-20T06:40:16.931Z,17.30
2023-05-20T06:42:44.325Z,17.30
2023-05-20T06:45:11.772Z,17.40
2023-05-20T06:47:39.023Z,17.50
2023-05-20T06:50:06.361Z,17.70
2023-05-20T06:52:33.232Z,17.90
2023-05-20T06:55:00.744Z,18.00
2023-05-20T06:57:27.653Z,18.20
2023-05-20T06:59:54.501Z,18.30
2023-05-20T07:02:22.225Z,18.40
2023-05-20T07:04:49.557Z,18.50
2023-05-20T07:07:17.427Z,18.60
2023-05-20T07:09:45.891Z,18.70
2023-05-20T07:12:12.739Z,18.80
2023-05-20T07:14:39.606Z,18.80
2023-05-20T07:17:06.581Z,18.80
2023-05-20T07:19:33.959Z,18.90
2023-05-20T07:22:01.044Z,18.90
2023-05-20T07:24:28.097Z,19.00
2023-05-20T07:26:55.331Z,19.20
2023-05-20T07:29:22.355Z,19.30
2023-05-20T07:31:49.579Z,19.40
2023-05-20T07:34:16.644Z,19.50
2023-05-20T07:36:44.844Z,19.60
2023-05-20T07:39:14.917Z,19.50
2023-05-20T07:41:42.578Z,19.60
2023-05-20T07:44:11.360Z,19.60
2023-05-20T07:46:39.082Z,19.70
2023-05-20T07:49:06.350Z,19.80
2023-05-20T07:51:33.686Z,20.00
2023-05-20T07:54:01.029Z,20.20
2023-05-20T07:56:28.680Z,20.30
2023-05-20T07:59:00.754Z,20.50
2023-05-20T08:01:27.959Z,20.60
2023-05-20T08:03:55.577Z,20.80
2023-05-20T08:06:24.419Z,20.90
2023-05-20T08:08:54.070Z,21.00
2023-05-20T08:11:22.372Z,21.10
2023-05-20T08:13:50.017Z,21.10
2023-05-20T08:16:17.048Z,21.10
2023-05-20T08:18:44.467Z,21.00
2023-05-20T08:21:12.225Z,20.90
2023-05-20T08:23:40.516Z,20.70
2023-05-20T08:26:07.800Z,20.60
2023-05-20T08:28:34.951Z,20.50
2023-05-20T08:31:02.473Z,20.50
2023-05-20T08:33:30.561Z,20.40
2023-05-20T08:35:58.706Z,20.40
2023-05-20T08:38:25.837Z,20.30
2023-05-20T08:40:55.376Z,20.20
2023-05-20T08:43:23.533Z,20.20
2023-05-20T08:45:52.772Z,20.10
2023-05-20T08:48:22.719Z,20.10
2023-05-20T08:50:53.140Z,20.00
2023-05-20T08:53:22.718Z,20.00
2023-05-20T08:56:03.195Z,20.00
2023-05-20T08:58:31.601Z,20.10
2023-05-20T09:01:02.232Z,20.20
2023-05-20T09:03:29.633Z,20.30
2023-05-20T09:06:08.162Z,20.50
2023-05-20T09:08:35.513Z,20.70
2023-05-20T09:11:03.084Z,20.80
2023-05-20T09:13:33.287Z,20.90
2023-05-20T09:16:02.193Z,21.00
2023-05-20T09:18:30.291Z,21.20
2023-05-20T09:20:58.170Z,21.20
2023-05-20T09:23:26.092Z,21.10
2023-05-20T09:25:53.120Z,21.10
2023-05-20T09:28:24.201Z,21.10
2023-05-20T09:30:51.896Z,21.20
2023-05-20T09:33:19.177Z,21.20
2023-05-20T09:35:47.121Z,21.30
2023-05-20T09:38:15.648Z,21.30
2023-05-20T09:40:45.279Z,21.30
2023-05-20T09:43:12.538Z,21.30
2023-05-20T09:45:39.742Z,21.40
2023-05-20T09:48:09.124Z,21.40
2023-05-20T09:50:36.819Z,21.60
2023-05-20T09:53:05.163Z,21.80
2023-05-20T09:55:33.377Z,22.00
2023-05-20T09:58:03.887Z,22.10
2023-05-20T10:00:31.726Z,22.30
2023-05-20T10:03:00.078Z,22.40
2023-05-20T10:05:32.188Z,22.50
2023-05-20T10:08:11.888Z,22.70
2023-05-20T10:11:20.072Z,22.80
2023-05-20T10:13:59.226Z,22.90
2023-05-20T10:16:34.522Z,23.10
2023-05-20T10:19:20.047Z,23.30
2023-05-20T10:21:58.112Z,23.40
2023-05-20T10:24:58.028Z,23.60
2023-05-20T10:27:25.256Z,23.80
2023-05-20T10:29:54.096Z,24.00
2023-05-20T10:32:32.402Z,24.10
2023-05-20T10:35:06.008Z,24.30
2023-05-20T10:37:42.461Z,24.40
2023-05-20T10:40:12.307Z,24.40
2023-05-20T10:42:40.231Z,24.60
2023-05-20T10:45:08.517Z,24.60
2023-05-20T10:47:36.592Z,24.80
2023-05-20T10:50:06.085Z,24.80
2023-05-20T10:52:39.365Z,24.80
2023-05-20T10:55:07.665Z,24.80
2023-05-20T10:57:34.784Z,24.80
2023-05-20T11:00:02.129Z,24.80
2023-05-20T11:02:29.616Z,24.80
2023-05-20T11:05:00.944Z,24.90
2023-05-20T11:07:32.272Z,25.00
2023-05-20T11:09:59.836Z,25.10
2023-05-20T11:12:27.912Z,25.10
2023-05-20T11:14:55.403Z,25.20
2023-05-20T11:17:22.328Z,25.20
2023-05-20T11:19:49.530Z,25.30
2023-05-20T11:22:16.519Z,25.40
2023-05-20T11:24:43.490Z,25.60
2023-05-20T11:27:11.611Z,25.70
2023-05-20T11:29:40.641Z,25.90
2023-05-20T11:32:08.395Z,26.00
2023-05-20T11:34:37.736Z,26.10
2023-05-20T11:37:11.835Z,26.30
2023-05-20T11:39:39.362Z,26.50
2023-05-20T11:42:06.617Z,26.70
2023-05-20T11:44:33.909Z,27.00
2023-05-20T11:47:02.078Z,27.30
2023-05-20T11:49:31.076Z,27.70
2023-05-20T11:52:03.262Z,28.30
2023-05-20T11:54:36.574Z,28.80
2023-05-20T11:59:44.886Z,30.00
2023-05-20T12:02:13.635Z,30.80
2023-05-20T12:04:42.890Z,31.40
2023-05-20T12:07:10.504Z,32.00
2023-05-20T12:09:37.609Z,32.50
2023-05-20T12:12:04.708Z,33.00
2023-05-20T12:14:31.754Z,33.50
2023-05-20T12:16:59.910Z,33.70
2023-05-20T12:19:27.034Z,33.80
2023-05-20T12:21:54.006Z,33.40
2023-05-20T12:24:21.347Z,33.10
2023-05-20T12:26:48.425Z,32.80
2023-05-20T12:29:15.423Z,32.60
2023-05-20T12:31:42.546Z,32.60
2023-05-20T12:34:09.643Z,32.50
2023-05-20T12:36:37.784Z,32.60
2023-05-20T12:39:05.468Z,32.60
2023-05-20T12:41:32.410Z,32.60
2023-05-20T12:43:59.618Z,32.80
2023-05-20T12:46:27.230Z,33.10
2023-05-20T12:48:54.177Z,33.30
2023-05-20T12:51:21.561Z,33.40
2023-05-20T12:53:48.848Z,33.60
2023-05-20T12:56:16.422Z,33.80
2023-05-20T12:58:44.501Z,33.80
2023-05-20T13:01:11.631Z,33.70
2023-05-20T13:03:38.843Z,33.50
2023-05-20T13:06:06.025Z,33.10
2023-05-20T13:08:33.076Z,32.90
2023-05-20T13:11:00.179Z,32.70
2023-05-20T13:13:27.373Z,32.70
2023-05-20T13:15:54.829Z,33.00
2023-05-20T13:18:22.035Z,33.60
2023-05-20T13:20:49.823Z,34.20
2023-05-20T13:23:16.718Z,34.50
2023-05-20T13:25:44.367Z,34.60
2023-05-20T13:28:12.604Z,34.40
2023-05-20T13:30:39.863Z,34.00
2023-05-20T13:33:07.131Z,33.40
2023-05-20T13:35:34.314Z,33.10
2023-05-20T13:38:01.398Z,33.20
2023-05-20T13:40:29.578Z,33.80
2023-05-20T13:42:56.640Z,34.10
2023-05-20T13:45:23.842Z,34.40
2023-05-20T13:47:51.067Z,34.70
2023-05-20T13:50:18.320Z,34.70
2023-05-20T13:52:45.300Z,34.30
2023-05-20T13:55:12.410Z,34.00
2023-05-20T13:57:39.580Z,33.60
2023-05-20T14:00:07.260Z,33.00
2023-05-20T14:02:34.586Z,32.40
2023-05-20T14:05:02.676Z,31.70
2023-05-20T14:07:29.717Z,31.00
2023-05-20T14:09:57.019Z,30.30
2023-05-20T14:12:24.381Z,29.80
2023-05-20T14:14:51.393Z,29.30
2023-05-20T14:17:18.689Z,29.00
2023-05-20T14:19:45.952Z,28.70
2023-05-20T14:22:15.485Z,28.50
2023-05-20T14:24:42.666Z,28.30
2023-05-20T14:27:11.499Z,28.20
2023-05-20T14:29:38.444Z,28.00
2023-05-20T14:32:05.926Z,27.90
2023-05-20T14:34:33.039Z,27.80
2023-05-20T14:37:05.607Z,27.60
2023-05-20T14:39:32.558Z,27.50
2023-05-20T14:41:59.890Z,27.40
2023-05-20T14:44:26.890Z,27.30
2023-05-20T14:46:54.292Z,27.20
2023-05-20T14:49:21.688Z,27.20
2023-05-20T14:51:48.683Z,27.10
2023-05-20T14:54:16.483Z,27.00
2023-05-20T14:56:43.559Z,27.00
2023-05-20T14:59:10.496Z,26.90
2023-05-20T15:01:37.396Z,26.80
2023-05-20T15:04:04.434Z,26.70
2023-05-20T15:06:33.644Z,26.70
2023-05-20T15:09:00.716Z,26.70
2023-05-20T15:11:27.802Z,26.90
2023-05-20T15:13:54.900Z,27.00
2023-05-20T15:16:24.431Z,27.10
2023-05-20T15:18:52.099Z,27.20
2023-05-20T15:21:19.207Z,27.20
2023-05-20T15:23:46.250Z,27.00
2023-05-20T15:26:13.417Z,26.80
2023-05-20T15:28:40.940Z,26.60
2023-05-20T15:31:07.990Z,26.50
2023-05-20T15:33:35.423Z,26.30
2023-05-20T15:36:02.613Z,26.10
2023-05-20T15:38:29.779Z,26.00
2023-05-20T15:40:57.248Z,25.90
2023-05-20T15:43:24.399Z,25.80
2023-05-20T15:45:51.544Z,25.70
2023-05-20T15:48:18.726Z,25.70
2023-05-20T15:50:45.911Z,25.60
2023-05-20T15:53:14.859Z,25.60
2023-05-20T15:55:42.973Z,25.50
2023-05-20T15:58:10.626Z,25.50
2023-05-20T16:00:37.823Z,25.50
2023-05-20T16:03:05.092Z,25.40
2023-05-20T16:05:32.206Z,25.40
2023-05-20T16:07:59.275Z,25.30
2023-05-20T16:10:32.431Z,25.30
2023-05-20T16:13:03.836Z,25.20
2023-05-20T16:15:35.639Z,25.10
2023-05-20T16:18:03.048Z,25.10
2023-05-20T16:20:30.614Z,25.10
2023-05-20T16:22:57.765Z,25.10
2023-05-20T16:25:24.730Z,25.00
2023-05-20T16:27:51.822Z,25.00
2023-05-20T16:30:19.976Z,25.00
2023-05-20T16:32:47.135Z,25.00
2023-05-20T16:35:16.193Z,25.00
2023-05-20T16:37:44.554Z,24.90
2023-05-20T16:40:11.871Z,24.80
2023-05-20T16:42:39.837Z,24.70
2023-05-20T16:45:07.593Z,24.70
2023-05-20T16:47:37.145Z,24.60
2023-05-20T16:50:04.723Z,24.50
2023-05-20T16:52:33.537Z,24.50
2023-05-20T16:55:04.696Z,24.40
2023-05-20T16:57:32.651Z,24.40
2023-05-20T16:59:59.646Z,24.30
2023-05-20T17:02:26.728Z,24.30
2023-05-20T17:04:54.815Z,24.20
2023-05-20T17:07:21.913Z,24.20
2023-05-20T17:09:49.041Z,24.20
2023-05-20T17:12:17.163Z,24.20
2023-05-20T17:14:44.379Z,24.20
2023-05-20T17:17:13.989Z,24.20
2023-05-20T17:19:41.203Z,24.10
2023-05-20T17:22:08.107Z,24.10
2023-05-20T17:24:35.893Z,24.10
2023-05-20T17:27:03.824Z,24.10
2023-05-20T17:29:31.667Z,24.00
2023-05-20T17:31:58.673Z,23.90
2023-05-20T17:34:25.825Z,23.90
2023-05-20T17:36:52.980Z,23.80
2023-05-20T17:39:20.121Z,23.70
2023-05-20T17:41:47.288Z,23.70
2023-05-20T17:44:15.537Z,23.70
2023-05-20T17:46:43.873Z,23.60
2023-05-20T17:49:11.322Z,23.60
2023-05-20T17:51:38.362Z,23.50
2023-05-20T17:54:06.551Z,23.40
2023-05-20T17:56:33.634Z,23.30
2023-05-20T17:59:02.616Z,23.30
2023-05-20T18:01:30.099Z,23.20
2023-05-20T18:04:04.253Z,23.10
2023-05-20T18:06:34.605Z,23.00
2023-05-20T18:09:02.060Z,23.00
2023-05-20T18:11:32.656Z,22.90
2023-05-20T18:14:00.535Z,22.80
2023-05-20T18:16:28.864Z,22.70
2023-05-20T18:18:57.158Z,22.60
2023-05-20T18:21:25.029Z,22.50
2023-05-20T18:23:52.368Z,22.50
2023-05-20T18:26:19.452Z,22.40
2023-05-20T18:28:46.612Z,22.40
2023-05-20T18:31:13.659Z,22.50
2023-05-20T18:33:41.094Z,22.30
2023-05-20T18:36:08.308Z,22.20
2023-05-20T18:38:35.628Z,22.10
2023-05-20T18:41:02.693Z,22.00
2023-05-20T18:43:29.755Z,22.00
2023-05-20T18:45:56.937Z,21.90
2023-05-20T18:48:27.025Z,21.80
2023-05-20T18:50:56.123Z,21.70
2023-05-20T18:53:23.761Z,21.60
2023-05-20T18:55:51.217Z,21.50
2023-05-20T18:58:18.337Z,21.40
2023-05-20T19:00:45.580Z,21.30
2023-05-20T19:03:12.779Z,21.20
2023-05-20T19:05:40.979Z,21.20
2023-05-20T19:08:09.304Z,21.10
2023-05-20T19:10:36.392Z,21.00
2023-05-20T19:13:03.245Z,20.90
2023-05-20T19:15:31.290Z,20.90
2023-05-20T19:17:58.202Z,20.80
2023-05-20T19:20:25.197Z,20.80
2023-05-20T19:22:52.564Z,20.70
2023-05-20T19:25:20.272Z,20.60
2023-05-20T19:27:47.534Z,20.60
2023-05-20T19:30:14.428Z,20.50
2023-05-20T19:32:41.432Z,20.40
2023-05-20T19:35:08.791Z,20.40
2023-05-20T19:37:36.002Z,20.40
2023-05-20T19:40:03.800Z,20.30
2023-05-20T19:42:30.730Z,20.30
2023-05-20T19:44:57.594Z,20.20
2023-05-20T19:47:24.626Z,20.10
2023-05-20T19:49:51.627Z,20.10
2023-05-20T19:52:19.524Z,20.00
2023-05-20T19:54:47.348Z,20.00
2023-05-20T19:57:14.209Z,19.90
2023-05-20T19:59:41.401Z,19.80
2023-05-20T20:02:08.342Z,19.80
2023-05-20T20:04:35.312Z,19.80
2023-05-20T20:07:03.527Z,19.70
2023-05-20T20:09:31.215Z,19.70
2023-05-20T20:11:58.294Z,19.60
2023-05-20T20:14:25.405Z,19.60
2023-05-20T20:16:53.960Z,19.50
2023-05-20T20:19:23.938Z,19.40
2023-05-20T20:21:56.653Z,19.30
2023-05-20T20:24:24.265Z,19.30
2023-05-20T20:26:54.221Z,19.20
2023-05-20T20:29:24.142Z,19.20
2023-05-20T20:31:52.017Z,19.10
2023-05-20T20:34:19.275Z,19.00
2023-05-20T20:36:47.208Z,19.00
2023-05-20T20:39:15.345Z,19.00
2023-05-20T20:41:45.089Z,18.90
2023-05-20T20:44:19.018Z,18.90
2023-05-20T20:46:46.129Z,18.90
2023-05-20T20:49:13.249Z,18.80
2023-05-20T20:51:40.739Z,18.80
2023-05-20T20:54:08.159Z,18.80
2023-05-20T20:56:39.558Z,18.70
2023-05-20T20:59:06.464Z,18.70
2023-05-20T21:01:37.844Z,18.60
2023-05-20T21:04:06.298Z,18.60
2023-05-20T21:06:33.396Z,18.50
2023-05-20T21:09:02.272Z,18.50
2023-05-20T21:11:29.618Z,18.50
2023-05-20T21:13:56.776Z,18.40
2023-05-20T21:16:23.898Z,18.40
2023-05-20T21:18:50.973Z,18.30
2023-05-20T21:21:20.606Z,18.30
2023-05-20T21:23:49.195Z,18.20
2023-05-20T21:26:16.253Z,18.20
2023-05-20T21:28:43.260Z,18.20
2023-05-20T21:31:10.546Z,18.10
2023-05-20T21:33:37.594Z,18.10
2023-05-20T21:36:05.014Z,18.10
2023-05-20T21:38:32.145Z,18.00
2023-05-20T21:41:01.649Z,17.90
2023-05-20T21:43:29.558Z,17.90
2023-05-20T21:45:56.812Z,17.80
2023-05-20T21:48:23.804Z,17.80
2023-05-20T21:50:51.825Z,17.70
2023-05-20T21:53:18.696Z,17.70
2023-05-20T21:55:45.945Z,17.60
2023-05-20T21:58:12.915Z,17.60
2023-05-20T22:00:41.052Z,17.60
2023-05-20T22:03:08.155Z,17.50
2023-05-20T22:05:35.430Z,17.50
2023-05-20T22:08:02.955Z,17.40
2023-05-20T22:10:33.784Z,17.40
2023-05-20T22:13:02.222Z,17.30
2023-05-20T22:15:29.527Z,17.30
2023-05-20T22:17:57.236Z,17.30
2023-05-20T22:20:25.275Z,17.20
2023-05-20T22:22:52.220Z,17.20
2023-05-20T22:25:19.463Z,17.20
2023-05-20T22:27:47.110Z,17.10
2023-05-20T22:30:14.329Z,17.10
2023-05-20T22:32:41.530Z,17.10
2023-05-20T22:35:09.188Z,17.00
2023-05-20T22:37:36.352Z,17.00
2023-05-20T22:40:04.272Z,17.00
2023-05-20T22:42:32.191Z,16.90
2023-05-20T22:44:59.340Z,16.90
2023-05-20T22:47:26.613Z,16.90
2023-05-20T22:49:54.013Z,16.80
2023-05-20T22:52:21.287Z,16.80
2023-05-20T22:54:48.259Z,16.80
2023-05-20T22:57:17.057Z,16.80
2023-05-20T22:59:44.095Z,16.70
2023-05-20T23:02:11.526Z,16.70
2023-05-20T23:04:38.914Z,16.70
2023-05-20T23:07:06.473Z,16.70
2023-05-20T23:09:33.624Z,16.60
2023-05-20T23:12:00.785Z,16.60
2023-05-20T23:14:27.922Z,16.50
2023-05-20T23:16:55.185Z,16.50
2023-05-20T23:19:22.408Z,16.40
2023-05-20T23:21:49.311Z,16.30
2023-05-20T23:24:16.764Z,16.30
2023-05-20T23:26:44.048Z,16.20
2023-05-20T23:29:11.191Z,16.10
2023-05-20T23:31:38.360Z,16.00
2023-05-20T23:34:05.584Z,16.00
2023-05-20T23:36:35.502Z,16.00
2023-05-20T23:39:02.661Z,15.90
2023-05-20T23:41:29.726Z,15.90
2023-05-20T23:43:56.791Z,15.80
2023-05-20T23:46:23.995Z,15.80
2023-05-20T23:48:51.207Z,15.70
2023-05-20T23:51:18.313Z,15.60
2023-05-20T23:53:45.473Z,15.60
2023-05-20T23:56:12.584Z,15.50
2023-05-20T23:58:39.711Z,15.50
